createdAt,value
2018-04-19T00:00:34.843Z,55.37
2018-04-19T00:03:45.317Z,54.30
2018-04-19T00:06:54.791Z,56.13
2018-04-19T00:10:06.686Z,51.07
2018-04-19T00:13:16.727Z,54.60
2018-04-19T00:16:26.576Z,51.00
2018-04-19T00:19:36.835Z,58.97
2018-04-19T00:22:46.230Z,58.03
2018-04-19T00:25:56.535Z,53.55
2018-04-19T00:29:06.974Z,54.08
2018-04-19T00:32:16.433Z,56.13
2018-04-19T00:35:25.870Z,54.40
2018-04-19T00:38:36.145Z,57.75
2018-04-19T00:41:45.557Z,56.37
2018-04-19T00:44:55.564Z,53.83
2018-04-19T00:48:07.287Z,60.83
2018-04-19T00:51:17.135Z,53.95
2018-04-19T00:54:27.427Z,55.33
2018-04-19T00:57:37.673Z,56.37
2018-04-19T01:00:47.971Z,58.57
2018-04-19T01:03:57.798Z,52.47
2018-04-19T01:07:08.623Z,51.87
2018-04-19T01:10:18.003Z,52.77
2018-04-19T01:13:28.371Z,56.10
2018-04-19T01:16:37.927Z,53.10
2018-04-19T01:19:47.702Z,51.67
2018-04-19T01:22:57.920Z,53.03
2018-04-19T01:26:09.579Z,58.27
2018-04-19T01:29:19.486Z,50.17
2018-04-19T01:32:30.653Z,52.83
2018-04-19T01:35:57.988Z,47.37
2018-04-19T01:39:07.767Z,50.23
2018-04-19T01:42:18.193Z,47.53
2018-04-19T01:45:27.553Z,43.35
2018-04-19T01:48:37.176Z,46.87
2018-04-19T01:51:47.930Z,45.80
2018-04-19T01:54:57.528Z,42.33
2018-04-19T01:58:07.412Z,45.17
2018-04-19T02:01:16.852Z,44.30
2018-04-19T02:04:26.301Z,47.87
2018-04-19T02:07:35.699Z,43.60
2018-04-19T02:10:45.571Z,39.80
2018-04-19T02:13:54.994Z,42.17
2018-04-19T02:17:09.293Z,42.97
2018-04-19T02:20:18.777Z,42.93
2018-04-19T02:23:28.253Z,49.70
2018-04-19T02:26:38.535Z,40.60
2018-04-19T02:29:47.906Z,48.03
2018-04-19T02:32:57.343Z,38.53
2018-04-19T02:36:07.604Z,46.00
2018-04-19T02:39:17.089Z,36.23
2018-04-19T02:42:26.476Z,41.37
2018-04-19T02:45:36.766Z,38.83
2018-04-19T02:48:46.264Z,44.80
2018-04-19T02:52:00.222Z,41.17
2018-04-19T02:55:09.684Z,44.67
2018-04-19T02:58:22.994Z,41.37
2018-04-19T03:01:33.697Z,46.63
2018-04-19T03:04:43.145Z,41.37
2018-04-19T03:07:53.365Z,39.27
2018-04-19T03:11:03.664Z,43.37
2018-04-19T03:14:15.139Z,45.00
2018-04-19T03:17:24.799Z,46.57
2018-04-19T03:20:34.738Z,45.30
2018-04-19T03:23:45.068Z,43.37
2018-04-19T03:26:55.394Z,48.40
2018-04-19T03:30:05.236Z,38.77
2018-04-19T03:33:16.119Z,36.90
2018-04-19T03:36:26.340Z,38.63
2018-04-19T03:39:36.383Z,36.93
2018-04-19T03:42:46.234Z,38.87
2018-04-19T03:45:57.595Z,36.77
2018-04-19T03:49:08.848Z,39.30
2018-04-19T03:52:18.276Z,35.30
2018-04-19T03:55:28.485Z,37.53
2018-04-19T03:58:38.368Z,37.13
2018-04-19T04:01:48.044Z,35.23
2018-04-19T04:04:57.534Z,37.37
2018-04-19T04:08:07.753Z,33.57
2018-04-19T04:11:18.353Z,32.87
2018-04-19T04:14:28.640Z,37.47
2018-04-19T04:17:56.273Z,34.53
2018-04-19T04:21:18.657Z,33.43
2018-04-19T04:24:27.994Z,35.37
2018-04-19T04:27:37.367Z,38.97
2018-04-19T04:30:46.756Z,37.10
2018-04-19T04:33:57.264Z,41.43
2018-04-19T04:37:06.734Z,37.60
2018-04-19T04:40:16.127Z,36.03
2018-04-19T04:43:25.582Z,35.20
2018-04-19T04:46:35.632Z,38.30
2018-04-19T04:49:45.855Z,41.13
2018-04-19T04:52:55.430Z,39.83
2018-04-19T04:56:04.783Z,34.90
2018-04-19T04:59:14.597Z,30.70
2018-04-19T05:02:24.457Z,33.90
2018-04-19T05:05:34.903Z,35.27
2018-04-19T05:08:44.786Z,34.43
2018-04-19T05:11:55.004Z,30.30
2018-04-19T05:15:04.502Z,33.73
2018-04-19T05:18:13.922Z,31.27
2018-04-19T05:21:23.407Z,32.43
2018-04-19T05:24:33.584Z,30.60
2018-04-19T05:27:43.856Z,32.07
2018-04-19T05:30:54.508Z,26.87
2018-04-19T05:34:04.253Z,28.20
2018-04-19T05:37:15.691Z,30.07
2018-04-19T05:40:26.016Z,26.67
2018-04-19T05:43:35.703Z,29.73
2018-04-19T05:46:45.949Z,27.37
2018-04-19T05:49:55.302Z,27.43
2018-04-19T05:53:05.016Z,27.80
2018-04-19T05:56:15.280Z,25.47
2018-04-19T05:59:25.518Z,33.37
2018-04-19T06:02:35.804Z,29.47
2018-04-19T06:05:45.664Z,30.57
2018-04-19T06:08:56.384Z,26.67
2018-04-19T06:12:06.199Z,26.93
2018-04-19T06:15:17.085Z,27.20
2018-04-19T06:18:26.885Z,28.77
2018-04-19T06:21:36.336Z,26.37
2018-04-19T06:24:46.193Z,26.33
2018-04-19T06:27:56.085Z,24.77
2018-04-19T06:31:05.540Z,28.17
2018-04-19T06:34:15.709Z,25.13
2018-04-19T06:37:25.805Z,22.60
2018-04-19T06:40:36.027Z,24.90
2018-04-19T06:43:45.476Z,24.97
2018-04-19T06:46:54.968Z,23.20
2018-04-19T06:50:04.860Z,18.48
2018-04-19T06:53:14.416Z,24.77
2018-04-19T06:56:25.928Z,19.93
2018-04-19T06:59:35.776Z,24.40
2018-04-19T07:02:46.211Z,19.17
2018-04-19T07:05:55.682Z,19.83
2018-04-19T07:09:08.059Z,25.25
2018-04-19T07:12:17.395Z,19.92
2018-04-19T07:15:27.693Z,24.95
2018-04-19T07:18:37.911Z,21.77
2018-04-19T07:21:47.812Z,18.05
2018-04-19T07:24:58.008Z,20.42
2018-04-19T07:28:08.312Z,21.20
2018-04-19T07:31:17.956Z,22.83
2018-04-19T07:34:28.202Z,19.23
2018-04-19T07:37:37.874Z,16.27
2018-04-19T07:40:48.094Z,21.15
2018-04-19T07:43:57.543Z,19.05
2018-04-19T07:47:07.780Z,18.48
2018-04-19T07:50:17.701Z,17.92
2018-04-19T07:53:28.180Z,14.30
2018-04-19T07:56:37.649Z,19.52
2018-04-19T07:59:47.385Z,20.12
2018-04-19T08:02:57.318Z,23.45
2018-04-19T08:06:07.316Z,21.85
2018-04-19T08:09:16.768Z,16.73
2018-04-19T08:12:28.287Z,26.12
2018-04-19T08:15:38.366Z,13.93
2018-04-19T08:18:48.753Z,15.27
2018-04-19T08:21:59.515Z,20.08
2018-04-19T08:25:08.873Z,17.67
2018-04-19T08:28:20.557Z,14.23
2018-04-19T08:31:30.065Z,16.30
2018-04-19T08:34:40.520Z,13.23
2018-04-19T08:37:55.323Z,19.30
2018-04-19T08:41:08.279Z,15.73
2018-04-19T08:44:20.641Z,12.98
2018-04-19T08:47:31.765Z,18.40
2018-04-19T08:50:41.380Z,17.87
2018-04-19T08:53:50.741Z,11.23
2018-04-19T08:57:00.227Z,13.05
2018-04-19T09:00:09.617Z,13.88
2018-04-19T09:03:19.617Z,12.45
2018-04-19T09:06:33.564Z,13.62
2018-04-19T09:09:42.953Z,13.38
2018-04-19T09:12:52.255Z,14.35
2018-04-19T09:16:02.579Z,9.50
2018-04-19T09:19:15.999Z,11.70
2018-04-19T09:22:25.437Z,8.50
2018-04-19T09:25:38.706Z,9.18
2018-04-19T09:28:48.116Z,14.77
2018-04-19T09:31:57.431Z,11.68
2018-04-19T09:35:06.704Z,9.48
2018-04-19T09:38:16.118Z,8.32
2018-04-19T09:41:25.561Z,8.07
2018-04-19T09:44:34.932Z,6.90
2018-04-19T09:47:45.275Z,6.07
2018-04-19T09:50:54.668Z,7.18
2018-04-19T09:54:04.271Z,8.30
2018-04-19T09:57:14.460Z,11.07
2018-04-19T10:00:23.797Z,8.20
2018-04-19T10:03:38.652Z,11.20
2018-04-19T10:06:48.007Z,9.38
2018-04-19T10:09:57.474Z,9.13
2018-04-19T10:13:06.976Z,12.15
2018-04-19T10:16:16.385Z,9.73
2018-04-19T10:19:25.834Z,8.63
2018-04-19T10:22:35.232Z,11.15
2018-04-19T10:25:44.570Z,16.92
2018-04-19T10:28:54.067Z,12.40
2018-04-19T10:32:08.072Z,8.65
2018-04-19T10:35:17.740Z,8.07
2018-04-19T10:38:27.180Z,7.05
2018-04-19T10:41:36.856Z,11.88
2018-04-19T10:44:46.324Z,7.75
2018-04-19T10:47:56.786Z,8.02
2018-04-19T10:51:06.241Z,10.13
2018-04-19T10:54:15.555Z,11.73
2018-04-19T10:57:25.040Z,8.00
2018-04-19T11:00:34.496Z,7.45
2018-04-19T11:03:43.854Z,8.48
2018-04-19T11:06:54.044Z,6.93
2018-04-19T11:10:03.423Z,7.30
2018-04-19T11:13:13.128Z,10.00
2018-04-19T11:16:22.705Z,10.52
2018-04-19T11:19:32.320Z,9.48
2018-04-19T11:22:43.026Z,8.65
2018-04-19T11:25:53.216Z,8.20
2018-04-19T11:29:02.603Z,9.88
2018-04-19T11:32:12.124Z,11.23
2018-04-19T11:35:21.455Z,7.65
2018-04-19T11:38:30.970Z,8.77
2018-04-19T11:41:40.443Z,6.25
2018-04-19T11:44:49.801Z,5.32
2018-04-19T11:47:59.293Z,4.62
2018-04-19T11:51:08.920Z,11.63
2018-04-19T11:54:19.489Z,6.72
2018-04-19T11:57:29.630Z,5.25
2018-04-19T12:00:39.063Z,8.65
2018-04-19T12:03:48.951Z,15.15
2018-04-19T12:06:58.703Z,9.10
2018-04-19T12:10:13.212Z,9.15
2018-04-19T12:13:23.672Z,5.45
2018-04-19T12:16:34.073Z,6.40
2018-04-19T12:19:45.579Z,21.15
2018-04-19T12:22:54.867Z,8.10
2018-04-19T12:26:09.224Z,4.22
2018-04-19T12:29:18.661Z,5.35
2018-04-19T12:32:28.824Z,7.12
2018-04-19T12:35:38.256Z,6.00
2018-04-19T12:38:48.511Z,4.85
2018-04-19T12:41:58.896Z,7.62
2018-04-19T12:45:08.226Z,6.70
2018-04-19T12:48:17.656Z,6.28
2018-04-19T12:51:31.380Z,8.30
2018-04-19T12:54:40.754Z,9.27
2018-04-19T12:57:50.205Z,7.15
2018-04-19T13:00:59.637Z,6.90
2018-04-19T13:04:12.513Z,7.82
2018-04-19T13:07:22.030Z,8.73
2018-04-19T13:10:31.440Z,13.32
2018-04-19T13:13:40.976Z,8.25
2018-04-19T13:16:51.643Z,6.20
2018-04-19T13:20:00.893Z,7.28
2018-04-19T13:23:10.404Z,6.35
2018-04-19T13:26:19.696Z,6.97
2018-04-19T13:29:29.183Z,8.48
2018-04-19T13:32:40.028Z,14.45
2018-04-19T13:35:49.688Z,8.63
2018-04-19T13:38:59.068Z,6.90
2018-04-19T13:42:09.523Z,6.78
2018-04-19T13:45:18.964Z,3.17
2018-04-19T13:48:29.258Z,6.60
2018-04-19T13:51:40.363Z,4.47
2018-04-19T13:54:50.542Z,4.05
2018-04-19T13:58:03.449Z,3.65
2018-04-19T14:01:12.824Z,5.32
2018-04-19T14:04:22.975Z,7.55
2018-04-19T14:07:32.330Z,3.10
2018-04-19T14:10:42.578Z,4.55
2018-04-19T14:13:52.061Z,4.72
2018-04-19T14:17:02.396Z,3.58
2018-04-19T14:20:12.721Z,6.30
2018-04-19T14:23:22.035Z,5.28
2018-04-19T14:26:31.380Z,2.92
2018-04-19T14:29:42.368Z,4.05
2018-04-19T14:32:54.086Z,3.87
2018-04-19T14:36:03.825Z,6.25
2018-04-19T14:39:13.941Z,8.60
2018-04-19T14:42:23.955Z,5.32
2018-04-19T14:45:35.040Z,5.20
2018-04-19T14:48:44.985Z,5.18
2018-04-19T14:51:56.185Z,3.85
2018-04-19T14:55:05.567Z,5.00
2018-04-19T14:58:16.301Z,4.45
2018-04-19T15:01:25.821Z,6.12
2018-04-19T15:04:35.133Z,3.87
2018-04-19T15:07:45.119Z,3.53
2018-04-19T15:10:56.649Z,3.50
2018-04-19T15:14:06.049Z,2.97
2018-04-19T15:17:16.563Z,5.85
2018-04-19T15:20:26.240Z,4.80
2018-04-19T15:23:36.882Z,3.15
2018-04-19T15:26:47.012Z,2.85
2018-04-19T15:29:57.668Z,5.22
2018-04-19T15:33:07.500Z,4.07
2018-04-19T15:36:17.023Z,7.75
2018-04-19T15:39:27.370Z,2.75
2018-04-19T15:42:37.316Z,3.40
2018-04-19T15:45:48.112Z,5.25
2018-04-19T15:48:57.399Z,4.43
2018-04-19T15:52:06.808Z,2.25
2018-04-19T15:55:16.424Z,3.33
2018-04-19T15:58:25.900Z,2.75
2018-04-19T16:01:35.409Z,8.20
2018-04-19T16:04:44.826Z,3.00
2018-04-19T16:07:54.952Z,3.83
2018-04-19T16:11:06.959Z,9.23
2018-04-19T16:14:16.260Z,9.52
2018-04-19T16:17:25.672Z,9.70
2018-04-19T16:20:35.304Z,4.82
2018-04-19T16:23:45.536Z,3.53
2018-04-19T16:26:55.123Z,7.05
2018-04-19T16:30:04.368Z,3.78
2018-04-19T16:33:16.913Z,3.65
2018-04-19T16:36:28.396Z,10.65
2018-04-19T16:39:37.837Z,5.22
2018-04-19T16:42:47.254Z,2.78
2018-04-19T16:45:56.808Z,3.50
2018-04-19T16:49:06.115Z,3.22
2018-04-19T16:52:15.605Z,7.60
2018-04-19T16:55:25.431Z,5.72
2018-04-19T16:58:35.661Z,4.53
2018-04-19T17:01:47.186Z,7.15
2018-04-19T17:04:56.515Z,4.03
2018-04-19T17:08:06.058Z,4.68
2018-04-19T17:11:17.022Z,6.37
2018-04-19T17:14:27.548Z,6.35
2018-04-19T17:17:37.771Z,4.72
2018-04-19T17:20:47.773Z,9.20
2018-04-19T17:23:58.071Z,7.57
2018-04-19T17:27:07.624Z,10.57
2018-04-19T17:30:17.288Z,10.18
2018-04-19T17:33:27.502Z,41.20
2018-04-19T17:36:36.876Z,24.60
2018-04-19T17:39:48.944Z,4.78
2018-04-19T17:42:58.363Z,19.60
2018-04-19T17:46:07.891Z,10.27
2018-04-19T17:49:17.464Z,7.03
2018-04-19T17:52:27.757Z,26.77
2018-04-19T17:55:37.699Z,11.27
2018-04-19T17:58:49.792Z,7.82
2018-04-19T18:01:59.464Z,10.40
2018-04-19T18:05:08.948Z,6.78
2018-04-19T18:08:19.022Z,6.75
2018-04-19T18:11:29.192Z,11.32
2018-04-19T18:14:41.180Z,9.15
2018-04-19T18:17:52.582Z,4.90
2018-04-19T18:21:02.585Z,10.43
2018-04-19T18:24:12.457Z,6.30
2018-04-19T18:27:21.826Z,5.37
2018-04-19T18:30:31.732Z,6.65
2018-04-19T18:33:41.846Z,7.45
2018-04-19T18:36:52.083Z,4.45
2018-04-19T18:40:01.650Z,3.67
2018-04-19T18:43:12.075Z,2.92
2018-04-19T18:46:22.062Z,6.80
2018-04-19T18:49:31.500Z,7.47
2018-04-19T18:52:41.376Z,5.72
2018-04-19T18:55:52.395Z,10.30
2018-04-19T18:59:02.705Z,6.45
2018-04-19T19:02:12.066Z,7.87
2018-04-19T19:05:21.679Z,8.48
2018-04-19T19:08:32.212Z,9.82
2018-04-19T19:11:42.256Z,7.07
2018-04-19T19:14:52.386Z,6.82
2018-04-19T19:18:19.616Z,4.18
2018-04-19T19:21:30.257Z,5.78
2018-04-19T19:24:40.933Z,4.55
2018-04-19T19:27:52.383Z,9.82
2018-04-19T19:31:03.160Z,6.30
2018-04-19T19:34:14.562Z,7.32
2018-04-19T19:37:24.268Z,8.07
2018-04-19T19:40:34.913Z,7.10
2018-04-19T19:43:45.263Z,8.50
2018-04-19T19:46:55.136Z,12.60
2018-04-19T19:50:04.952Z,7.20
2018-04-19T19:53:14.641Z,4.80
2018-04-19T19:56:26.452Z,7.05
2018-04-19T19:59:37.171Z,9.30
2018-04-19T20:02:46.872Z,6.37
2018-04-19T20:05:57.111Z,7.07
2018-04-19T20:09:07.385Z,9.90
2018-04-19T20:12:22.120Z,9.20
2018-04-19T20:15:33.012Z,8.07
2018-04-19T20:18:43.360Z,6.10
2018-04-19T20:21:54.284Z,14.27
2018-04-19T20:25:04.969Z,12.23
2018-04-19T20:28:14.415Z,9.75
2018-04-19T20:31:24.235Z,7.93
2018-04-19T20:34:33.896Z,5.12
2018-04-19T20:37:43.608Z,12.37
2018-04-19T20:40:55.683Z,10.48
2018-04-19T20:44:05.491Z,7.72
2018-04-19T20:47:15.427Z,8.80
2018-04-19T20:50:25.409Z,5.47
2018-04-19T20:53:36.002Z,8.15
2018-04-19T20:56:45.378Z,5.65
2018-04-19T20:59:55.576Z,9.10
2018-04-19T21:03:05.003Z,8.63
2018-04-19T21:06:14.472Z,9.25
2018-04-19T21:09:23.872Z,6.82
2018-04-19T21:12:35.144Z,9.68
2018-04-19T21:15:46.728Z,16.77
2018-04-19T21:18:56.719Z,12.00
2018-04-19T21:22:06.917Z,9.60
2018-04-19T21:25:16.423Z,8.48
2018-04-19T21:28:26.712Z,10.32
2018-04-19T21:31:37.324Z,11.50
2018-04-19T21:34:46.853Z,7.72
2018-04-19T21:37:57.208Z,10.48
2018-04-19T21:41:06.644Z,8.82
2018-04-19T21:44:16.871Z,8.20
2018-04-19T21:47:26.364Z,8.32
2018-04-19T21:50:35.779Z,6.75
2018-04-19T21:53:46.037Z,13.50
2018-04-19T21:56:57.128Z,11.05
2018-04-19T22:00:08.082Z,8.65
2018-04-19T22:03:17.510Z,7.45
2018-04-19T22:06:26.885Z,11.38
2018-04-19T22:09:36.704Z,10.48
2018-04-19T22:12:46.945Z,10.52
2018-04-19T22:15:58.050Z,10.90
2018-04-19T22:19:08.725Z,13.30
2018-04-19T22:22:18.161Z,17.17
2018-04-19T22:25:28.025Z,32.47
2018-04-19T22:28:39.097Z,8.30
2018-04-19T22:31:48.518Z,9.52
2018-04-19T22:34:59.886Z,8.70
2018-04-19T22:38:09.286Z,10.18
2018-04-19T22:41:19.144Z,7.18
2018-04-19T22:44:29.271Z,10.95
2018-04-19T22:47:39.339Z,9.80
2018-04-19T22:50:49.058Z,10.77
2018-04-19T22:53:59.805Z,7.43
2018-04-19T22:57:09.985Z,9.35
2018-04-19T23:00:20.832Z,12.63
2018-04-19T23:03:30.978Z,7.60
2018-04-19T23:06:40.382Z,15.93
2018-04-19T23:09:50.262Z,11.05
2018-04-19T23:13:00.484Z,10.07
2018-04-19T23:16:10.739Z,6.93
2018-04-19T23:19:20.792Z,7.60
2018-04-19T23:22:35.262Z,8.98
2018-04-19T23:25:44.786Z,9.52
2018-04-19T23:28:54.209Z,9.82
2018-04-19T23:32:03.663Z,14.05
2018-04-19T23:35:13.943Z,9.73
2018-04-19T23:38:23.782Z,9.13
2018-04-19T23:41:33.393Z,9.40
2018-04-19T23:44:42.862Z,11.50
2018-04-19T23:47:52.747Z,12.15
2018-04-19T23:51:02.817Z,11.75
2018-04-19T23:54:13.256Z,11.38
2018-04-19T23:57:27.758Z,10.02
